sensor_id;sensor_type;location;lat;lon;timestamp;P1;durP1;ratioP1;P2;durP2;ratioP2
26516;SDS011;14190;51.342;6.338;2023-02-24T00:01:54;34.30;;;5.80;;
26516;SDS011;14190;51.342;6.338;2023-02-24T00:04:18;39.23;;;5.78;;
26516;SDS011;14190;51.342;6.338;2023-02-24T00:06:46;37.83;;;5.58;;
26516;SDS011;14190;51.342;6.338;2023-02-24T00:09:15;29.40;;;6.08;;
26516;SDS011;14190;51.342;6.338;2023-02-24T00:11:46;38.92;;;6.25;;
26516;SDS011;14190;51.342;6.338;2023-02-24T00:14:13;29.73;;;5.03;;
26516;SDS011;14190;51.342;6.338;2023-02-24T00:16:42;23.77;;;5.55;;
26516;SDS011;14190;51.342;6.338;2023-02-24T00:19:18;35.85;;;5.67;;
26516;SDS011;14190;51.342;6.338;2023-02-24T00:21:42;31.65;;;6.30;;
26516;SDS011;14190;51.342;6.338;2023-02-24T00:24:10;48.83;;;6.78;;
26516;SDS011;14190;51.342;6.338;2023-02-24T00:26:37;33.58;;;6.58;;
26516;SDS011;14190;51.342;6.338;2023-02-24T00:29:06;31.33;;;6.83;;
26516;SDS011;14190;51.342;6.338;2023-02-24T00:31:34;35.25;;;6.65;;
26516;SDS011;14190;51.342;6.338;2023-02-24T00:34:03;33.65;;;6.85;;
26516;SDS011;14190;51.342;6.338;2023-02-24T00:36:30;34.18;;;7.15;;
26516;SDS011;14190;51.342;6.338;2023-02-24T00:39:05;43.83;;;6.75;;
26516;SDS011;14190;51.342;6.338;2023-02-24T00:41:30;49.15;;;7.40;;
26516;SDS011;14190;51.342;6.338;2023-02-24T00:43:59;38.28;;;8.43;;
26516;SDS011;14190;51.342;6.338;2023-02-24T00:46:28;35.88;;;5.75;;
26516;SDS011;14190;51.342;6.338;2023-02-24T00:48:56;31.20;;;6.10;;
26516;SDS011;14190;51.342;6.338;2023-02-24T00:51:24;41.55;;;6.20;;
26516;SDS011;14190;51.342;6.338;2023-02-24T00:53:53;33.35;;;6.58;;
26516;SDS011;14190;51.342;6.338;2023-02-24T00:56:26;33.18;;;5.42;;
26516;SDS011;14190;51.342;6.338;2023-02-24T00:58:54;34.30;;;6.42;;
26516;SDS011;14190;51.342;6.338;2023-02-24T01:01:23;43.20;;;7.72;;
26516;SDS011;14190;51.342;6.338;2023-02-24T01:03:51;44.00;;;5.90;;
26516;SDS011;14190;51.342;6.338;2023-02-24T01:06:23;34.92;;;6.12;;
26516;SDS011;14190;51.342;6.338;2023-02-24T01:08:51;37.35;;;5.10;;
26516;SDS011;14190;51.342;6.338;2023-02-24T01:11:20;34.60;;;6.03;;
26516;SDS011;14190;51.342;6.338;2023-02-24T01:14:10;24.35;;;5.47;;
26516;SDS011;14190;51.342;6.338;2023-02-24T01:16:39;28.45;;;5.28;;
26516;SDS011;14190;51.342;6.338;2023-02-24T01:19:10;33.40;;;6.25;;
26516;SDS011;14190;51.342;6.338;2023-02-24T01:21:39;37.60;;;6.28;;
26516;SDS011;14190;51.342;6.338;2023-02-24T01:24:07;52.70;;;7.22;;
26516;SDS011;14190;51.342;6.338;2023-02-24T01:26:36;42.48;;;6.95;;
26516;SDS011;14190;51.342;6.338;2023-02-24T01:29:04;39.80;;;7.15;;
26516;SDS011;14190;51.342;6.338;2023-02-24T01:31:33;31.85;;;7.72;;
26516;SDS011;14190;51.342;6.338;2023-02-24T01:34:01;31.37;;;6.50;;
26516;SDS011;14190;51.342;6.338;2023-02-24T01:36:30;42.30;;;8.55;;
26516;SDS011;14190;51.342;6.338;2023-02-24T01:38:59;43.90;;;7.15;;
26516;SDS011;14190;51.342;6.338;2023-02-24T01:41:27;39.98;;;6.40;;
26516;SDS011;14190;51.342;6.338;2023-02-24T01:44:00;36.13;;;7.10;;
26516;SDS011;14190;51.342;6.338;2023-02-24T01:46:28;51.77;;;7.25;;
26516;SDS011;14190;51.342;6.338;2023-02-24T01:49:03;28.15;;;6.33;;
26516;SDS011;14190;51.342;6.338;2023-02-24T01:51:29;49.00;;;8.00;;
26516;SDS011;14190;51.342;6.338;2023-02-24T01:53:58;36.37;;;7.07;;
26516;SDS011;14190;51.342;6.338;2023-02-24T01:56:25;36.30;;;7.50;;
26516;SDS011;14190;51.342;6.338;2023-02-24T01:58:55;36.77;;;6.27;;
26516;SDS011;14190;51.342;6.338;2023-02-24T02:01:22;46.58;;;7.25;;
26516;SDS011;14190;51.342;6.338;2023-02-24T02:03:50;39.27;;;7.87;;
26516;SDS011;14190;51.342;6.338;2023-02-24T02:06:19;53.50;;;6.22;;
26516;SDS011;14190;51.342;6.338;2023-02-24T02:08:47;43.75;;;6.25;;
26516;SDS011;14190;51.342;6.338;2023-02-24T02:11:14;38.02;;;6.53;;
26516;SDS011;14190;51.342;6.338;2023-02-24T02:13:48;37.93;;;7.50;;
26516;SDS011;14190;51.342;6.338;2023-02-24T02:16:27;39.58;;;6.58;;
26516;SDS011;14190;51.342;6.338;2023-02-24T02:27:21;36.30;;;6.28;;
26516;SDS011;14190;51.342;6.338;2023-02-24T02:30:01;28.67;;;5.95;;
26516;SDS011;14190;51.342;6.338;2023-02-24T02:32:29;22.70;;;6.03;;
26516;SDS011;14190;51.342;6.338;2023-02-24T02:37:35;38.70;;;6.65;;
26516;SDS011;14190;51.342;6.338;2023-02-24T02:42:52;44.70;;;7.72;;
26516;SDS011;14190;51.342;6.338;2023-02-24T02:45:37;43.23;;;6.90;;
26516;SDS011;14190;51.342;6.338;2023-02-24T02:48:16;39.18;;;6.28;;
26516;SDS011;14190;51.342;6.338;2023-02-24T02:53:13;41.60;;;7.55;;
26516;SDS011;14190;51.342;6.338;2023-02-24T02:55:50;28.32;;;6.42;;
26516;SDS011;14190;51.342;6.338;2023-02-24T02:58:16;32.10;;;7.25;;
26516;SDS011;14190;51.342;6.338;2023-02-24T03:00:41;37.67;;;6.75;;
26516;SDS011;14190;51.342;6.338;2023-02-24T03:03:11;42.03;;;7.50;;
26516;SDS011;14190;51.342;6.338;2023-02-24T03:05:43;38.85;;;6.75;;
26516;SDS011;14190;51.342;6.338;2023-02-24T03:08:13;41.05;;;7.60;;
26516;SDS011;14190;51.342;6.338;2023-02-24T03:10:41;40.12;;;8.03;;
26516;SDS011;14190;51.342;6.338;2023-02-24T03:13:11;25.92;;;7.85;;
26516;SDS011;14190;51.342;6.338;2023-02-24T03:15:39;48.92;;;7.17;;
26516;SDS011;14190;51.342;6.338;2023-02-24T03:18:10;42.20;;;8.53;;
26516;SDS011;14190;51.342;6.338;2023-02-24T03:20:43;41.07;;;7.70;;
26516;SDS011;14190;51.342;6.338;2023-02-24T03:23:19;40.67;;;7.78;;
26516;SDS011;14190;51.342;6.338;2023-02-24T03:25:50;33.53;;;8.38;;
26516;SDS011;14190;51.342;6.338;2023-02-24T03:28:25;43.52;;;8.65;;
26516;SDS011;14190;51.342;6.338;2023-02-24T03:30:55;37.50;;;7.53;;
26516;SDS011;14190;51.342;6.338;2023-02-24T03:33:21;41.50;;;8.95;;
26516;SDS011;14190;51.342;6.338;2023-02-24T03:35:49;37.40;;;9.17;;
26516;SDS011;14190;51.342;6.338;2023-02-24T03:38:18;38.63;;;8.95;;
26516;SDS011;14190;51.342;6.338;2023-02-24T03:40:48;46.18;;;8.80;;
26516;SDS011;14190;51.342;6.338;2023-02-24T03:43:25;42.27;;;8.63;;
26516;SDS011;14190;51.342;6.338;2023-02-24T03:45:53;42.90;;;9.20;;
26516;SDS011;14190;51.342;6.338;2023-02-24T03:48:22;28.45;;;8.45;;
26516;SDS011;14190;51.342;6.338;2023-02-24T03:50:51;50.58;;;8.95;;
26516;SDS011;14190;51.342;6.338;2023-02-24T03:56:15;39.13;;;8.35;;
26516;SDS011;14190;51.342;6.338;2023-02-24T03:58:46;35.38;;;8.80;;
26516;SDS011;14190;51.342;6.338;2023-02-24T04:01:13;41.90;;;8.85;;
26516;SDS011;14190;51.342;6.338;2023-02-24T04:03:48;47.35;;;8.98;;
26516;SDS011;14190;51.342;6.338;2023-02-24T04:06:31;50.70;;;7.90;;
26516;SDS011;14190;51.342;6.338;2023-02-24T04:11:39;44.98;;;8.30;;
26516;SDS011;14190;51.342;6.338;2023-02-24T04:14:11;40.48;;;7.10;;
26516;SDS011;14190;51.342;6.338;2023-02-24T04:16:50;30.15;;;7.12;;
26516;SDS011;14190;51.342;6.338;2023-02-24T04:19:15;34.35;;;8.03;;
26516;SDS011;14190;51.342;6.338;2023-02-24T04:21:44;42.93;;;8.27;;
26516;SDS011;14190;51.342;6.338;2023-02-24T04:24:21;40.25;;;8.85;;
26516;SDS011;14190;51.342;6.338;2023-02-24T04:26:46;36.83;;;7.78;;
26516;SDS011;14190;51.342;6.338;2023-02-24T04:29:16;38.58;;;7.53;;
26516;SDS011;14190;51.342;6.338;2023-02-24T04:34:11;31.33;;;7.55;;
26516;SDS011;14190;51.342;6.338;2023-02-24T04:36:40;38.58;;;9.20;;
26516;SDS011;14190;51.342;6.338;2023-02-24T04:39:08;41.42;;;7.92;;
26516;SDS011;14190;51.342;6.338;2023-02-24T04:41:37;43.78;;;8.10;;
26516;SDS011;14190;51.342;6.338;2023-02-24T04:44:05;38.92;;;8.03;;
26516;SDS011;14190;51.342;6.338;2023-02-24T04:46:32;37.73;;;7.90;;
26516;SDS011;14190;51.342;6.338;2023-02-24T04:48:59;43.10;;;7.92;;
26516;SDS011;14190;51.342;6.338;2023-02-24T04:51:27;31.57;;;11.12;;
26516;SDS011;14190;51.342;6.338;2023-02-24T04:53:56;49.55;;;8.53;;
26516;SDS011;14190;51.342;6.338;2023-02-24T04:56:23;41.68;;;8.35;;
26516;SDS011;14190;51.342;6.338;2023-02-24T04:58:51;48.75;;;7.70;;
26516;SDS011;14190;51.342;6.338;2023-02-24T05:01:23;37.88;;;8.23;;
26516;SDS011;14190;51.342;6.338;2023-02-24T05:03:47;27.30;;;7.15;;
26516;SDS011;14190;51.342;6.338;2023-02-24T05:06:15;33.00;;;6.37;;
26516;SDS011;14190;51.342;6.338;2023-02-24T05:08:43;31.68;;;6.35;;
26516;SDS011;14190;51.342;6.338;2023-02-24T05:11:11;37.23;;;6.37;;
26516;SDS011;14190;51.342;6.338;2023-02-24T05:13:41;45.38;;;6.70;;
26516;SDS011;14190;51.342;6.338;2023-02-24T05:16:10;31.57;;;6.40;;
26516;SDS011;14190;51.342;6.338;2023-02-24T05:18:39;30.95;;;6.47;;
26516;SDS011;14190;51.342;6.338;2023-02-24T05:21:09;40.33;;;7.45;;
26516;SDS011;14190;51.342;6.338;2023-02-24T05:23:55;37.50;;;7.20;;
26516;SDS011;14190;51.342;6.338;2023-02-24T05:26:25;37.58;;;6.50;;
26516;SDS011;14190;51.342;6.338;2023-02-24T05:28:53;31.87;;;7.28;;
26516;SDS011;14190;51.342;6.338;2023-02-24T05:31:23;35.68;;;6.62;;
26516;SDS011;14190;51.342;6.338;2023-02-24T05:33:54;28.70;;;5.62;;
26516;SDS011;14190;51.342;6.338;2023-02-24T05:36:23;34.90;;;6.87;;
26516;SDS011;14190;51.342;6.338;2023-02-24T05:38:52;30.48;;;6.30;;
26516;SDS011;14190;51.342;6.338;2023-02-24T05:41:27;39.20;;;6.72;;
26516;SDS011;14190;51.342;6.338;2023-02-24T05:44:09;32.28;;;6.47;;
26516;SDS011;14190;51.342;6.338;2023-02-24T05:46:37;32.65;;;5.78;;
26516;SDS011;14190;51.342;6.338;2023-02-24T05:49:05;28.35;;;5.62;;
26516;SDS011;14190;51.342;6.338;2023-02-24T05:51:37;37.80;;;7.42;;
26516;SDS011;14190;51.342;6.338;2023-02-24T05:54:07;25.95;;;6.08;;
26516;SDS011;14190;51.342;6.338;2023-02-24T05:56:36;24.87;;;6.92;;
26516;SDS011;14190;51.342;6.338;2023-02-24T05:59:05;34.63;;;6.60;;
26516;SDS011;14190;51.342;6.338;2023-02-24T06:01:36;20.52;;;5.30;;
26516;SDS011;14190;51.342;6.338;2023-02-24T06:04:06;26.33;;;5.80;;
26516;SDS011;14190;51.342;6.338;2023-02-24T06:06:35;25.50;;;6.33;;
26516;SDS011;14190;51.342;6.338;2023-02-24T06:09:04;34.25;;;6.28;;
26516;SDS011;14190;51.342;6.338;2023-02-24T06:11:36;28.92;;;6.37;;
26516;SDS011;14190;51.342;6.338;2023-02-24T06:14:04;22.65;;;5.85;;
26516;SDS011;14190;51.342;6.338;2023-02-24T06:16:35;32.13;;;5.78;;
26516;SDS011;14190;51.342;6.338;2023-02-24T06:19:03;27.20;;;5.55;;
26516;SDS011;14190;51.342;6.338;2023-02-24T06:21:35;19.95;;;5.78;;
26516;SDS011;14190;51.342;6.338;2023-02-24T06:24:06;29.07;;;6.60;;
26516;SDS011;14190;51.342;6.338;2023-02-24T06:26:35;24.32;;;5.30;;
26516;SDS011;14190;51.342;6.338;2023-02-24T06:29:04;16.30;;;5.10;;
26516;SDS011;14190;51.342;6.338;2023-02-24T06:31:31;24.92;;;4.97;;
26516;SDS011;14190;51.342;6.338;2023-02-24T06:33:58;19.95;;;5.00;;
26516;SDS011;14190;51.342;6.338;2023-02-24T06:36:26;26.93;;;5.72;;
26516;SDS011;14190;51.342;6.338;2023-02-24T06:38:56;23.52;;;4.60;;
26516;SDS011;14190;51.342;6.338;2023-02-24T06:41:23;18.67;;;4.95;;
26516;SDS011;14190;51.342;6.338;2023-02-24T06:43:52;15.80;;;4.92;;
26516;SDS011;14190;51.342;6.338;2023-02-24T06:46:19;23.00;;;4.58;;
26516;SDS011;14190;51.342;6.338;2023-02-24T06:48:46;22.37;;;4.47;;
26516;SDS011;14190;51.342;6.338;2023-02-24T06:51:14;15.90;;;4.03;;
26516;SDS011;14190;51.342;6.338;2023-02-24T06:53:42;21.42;;;4.47;;
26516;SDS011;14190;51.342;6.338;2023-02-24T06:56:14;22.52;;;4.60;;
26516;SDS011;14190;51.342;6.338;2023-02-24T06:58:43;20.72;;;4.30;;
26516;SDS011;14190;51.342;6.338;2023-02-24T07:01:12;19.12;;;5.85;;
26516;SDS011;14190;51.342;6.338;2023-02-24T07:03:39;14.63;;;4.45;;
26516;SDS011;14190;51.342;6.338;2023-02-24T07:06:09;20.97;;;4.67;;
26516;SDS011;14190;51.342;6.338;2023-02-24T07:08:38;26.20;;;5.20;;
26516;SDS011;14190;51.342;6.338;2023-02-24T07:11:06;20.97;;;5.47;;
26516;SDS011;14190;51.342;6.338;2023-02-24T07:13:34;19.85;;;5.00;;
26516;SDS011;14190;51.342;6.338;2023-02-24T07:16:02;15.63;;;5.05;;
26516;SDS011;14190;51.342;6.338;2023-02-24T07:18:35;24.72;;;4.72;;
26516;SDS011;14190;51.342;6.338;2023-02-24T07:21:04;14.93;;;3.87;;
26516;SDS011;14190;51.342;6.338;2023-02-24T07:23:34;22.50;;;5.83;;
26516;SDS011;14190;51.342;6.338;2023-02-24T07:26:04;22.70;;;4.67;;
26516;SDS011;14190;51.342;6.338;2023-02-24T07:28:30;15.95;;;4.42;;
26516;SDS011;14190;51.342;6.338;2023-02-24T07:30:59;26.57;;;4.47;;
26516;SDS011;14190;51.342;6.338;2023-02-24T07:33:26;25.30;;;4.50;;
26516;SDS011;14190;51.342;6.338;2023-02-24T07:35:54;23.10;;;5.00;;
26516;SDS011;14190;51.342;6.338;2023-02-24T07:38:23;17.17;;;4.55;;
26516;SDS011;14190;51.342;6.338;2023-02-24T07:40:50;18.30;;;4.90;;
26516;SDS011;14190;51.342;6.338;2023-02-24T07:43:20;20.60;;;6.20;;
26516;SDS011;14190;51.342;6.338;2023-02-24T07:45:48;17.55;;;5.90;;
26516;SDS011;14190;51.342;6.338;2023-02-24T07:48:15;28.52;;;6.95;;
26516;SDS011;14190;51.342;6.338;2023-02-24T07:50:43;23.45;;;6.50;;
26516;SDS011;14190;51.342;6.338;2023-02-24T07:53:10;34.63;;;8.20;;
26516;SDS011;14190;51.342;6.338;2023-02-24T07:55:37;22.65;;;6.42;;
26516;SDS011;14190;51.342;6.338;2023-02-24T07:58:05;28.45;;;7.47;;
26516;SDS011;14190;51.342;6.338;2023-02-24T08:00:33;40.23;;;7.08;;
26516;SDS011;14190;51.342;6.338;2023-02-24T08:03:02;28.27;;;7.42;;
26516;SDS011;14190;51.342;6.338;2023-02-24T08:05:29;28.67;;;7.45;;
26516;SDS011;14190;51.342;6.338;2023-02-24T08:07:57;30.45;;;7.85;;
26516;SDS011;14190;51.342;6.338;2023-02-24T08:10:24;23.57;;;8.73;;
26516;SDS011;14190;51.342;6.338;2023-02-24T08:12:52;28.62;;;7.22;;
26516;SDS011;14190;51.342;6.338;2023-02-24T08:15:21;30.27;;;8.23;;
26516;SDS011;14190;51.342;6.338;2023-02-24T08:17:57;26.70;;;7.08;;
26516;SDS011;14190;51.342;6.338;2023-02-24T08:20:22;27.15;;;7.03;;
26516;SDS011;14190;51.342;6.338;2023-02-24T08:22:51;26.15;;;6.22;;
26516;SDS011;14190;51.342;6.338;2023-02-24T08:25:20;31.23;;;6.72;;
26516;SDS011;14190;51.342;6.338;2023-02-24T08:27:49;26.55;;;6.28;;
26516;SDS011;14190;51.342;6.338;2023-02-24T08:30:23;24.65;;;7.87;;
26516;SDS011;14190;51.342;6.338;2023-02-24T08:32:51;20.23;;;6.22;;
26516;SDS011;14190;51.342;6.338;2023-02-24T08:35:26;25.97;;;6.50;;
26516;SDS011;14190;51.342;6.338;2023-02-24T08:38:04;20.82;;;6.22;;
26516;SDS011;14190;51.342;6.338;2023-02-24T08:40:34;22.98;;;5.12;;
26516;SDS011;14190;51.342;6.338;2023-02-24T08:43:05;18.50;;;4.33;;
26516;SDS011;14190;51.342;6.338;2023-02-24T08:45:37;29.02;;;4.97;;
26516;SDS011;14190;51.342;6.338;2023-02-24T08:48:04;20.70;;;4.83;;
26516;SDS011;14190;51.342;6.338;2023-02-24T08:50:34;21.50;;;5.53;;
26516;SDS011;14190;51.342;6.338;2023-02-24T08:53:02;16.90;;;5.58;;
26516;SDS011;14190;51.342;6.338;2023-02-24T08:55:30;33.38;;;5.95;;
26516;SDS011;14190;51.342;6.338;2023-02-24T08:57:58;25.80;;;4.37;;
26516;SDS011;14190;51.342;6.338;2023-02-24T09:02:56;21.90;;;4.10;;
26516;SDS011;14190;51.342;6.338;2023-02-24T09:05:24;19.73;;;4.08;;
26516;SDS011;14190;51.342;6.338;2023-02-24T09:07:51;24.47;;;4.47;;
26516;SDS011;14190;51.342;6.338;2023-02-24T09:10:19;22.02;;;4.03;;
26516;SDS011;14190;51.342;6.338;2023-02-24T09:12:47;19.50;;;4.37;;
26516;SDS011;14190;51.342;6.338;2023-02-24T09:15:16;22.73;;;4.08;;
26516;SDS011;14190;51.342;6.338;2023-02-24T09:17:43;25.17;;;3.85;;
26516;SDS011;14190;51.342;6.338;2023-02-24T09:20:20;25.77;;;5.53;;
26516;SDS011;14190;51.342;6.338;2023-02-24T09:22:56;27.32;;;4.40;;
26516;SDS011;14190;51.342;6.338;2023-02-24T09:25:26;26.90;;;4.12;;
26516;SDS011;14190;51.342;6.338;2023-02-24T09:28:07;16.02;;;4.78;;
26516;SDS011;14190;51.342;6.338;2023-02-24T09:30:36;18.92;;;4.75;;
26516;SDS011;14190;51.342;6.338;2023-02-24T09:33:07;18.45;;;3.70;;
26516;SDS011;14190;51.342;6.338;2023-02-24T09:35:37;16.60;;;3.70;;
26516;SDS011;14190;51.342;6.338;2023-02-24T09:38:06;20.12;;;4.95;;
26516;SDS011;14190;51.342;6.338;2023-02-24T09:40:33;19.85;;;4.65;;
26516;SDS011;14190;51.342;6.338;2023-02-24T09:43:09;28.45;;;4.40;;
26516;SDS011;14190;51.342;6.338;2023-02-24T09:45:35;20.88;;;4.28;;
26516;SDS011;14190;51.342;6.338;2023-02-24T09:48:08;30.68;;;5.33;;
26516;SDS011;14190;51.342;6.338;2023-02-24T09:50:36;29.27;;;4.15;;
26516;SDS011;14190;51.342;6.338;2023-02-24T09:53:07;20.35;;;4.37;;
26516;SDS011;14190;51.342;6.338;2023-02-24T09:55:56;18.87;;;5.12;;
26516;SDS011;14190;51.342;6.338;2023-02-24T10:03:30;24.65;;;4.50;;
26516;SDS011;14190;51.342;6.338;2023-02-24T10:06:21;19.20;;;4.60;;
26516;SDS011;14190;51.342;6.338;2023-02-24T10:08:51;21.45;;;5.15;;
26516;SDS011;14190;51.342;6.338;2023-02-24T10:11:18;17.57;;;4.55;;
26516;SDS011;14190;51.342;6.338;2023-02-24T10:13:48;24.82;;;4.75;;
26516;SDS011;14190;51.342;6.338;2023-02-24T10:16:18;21.37;;;4.92;;
26516;SDS011;14190;51.342;6.338;2023-02-24T10:18:50;21.23;;;4.97;;
26516;SDS011;14190;51.342;6.338;2023-02-24T10:21:31;22.20;;;4.45;;
26516;SDS011;14190;51.342;6.338;2023-02-24T10:24:02;22.73;;;5.58;;
26516;SDS011;14190;51.342;6.338;2023-02-24T10:26:29;23.30;;;5.45;;
26516;SDS011;14190;51.342;6.338;2023-02-24T10:31:48;16.85;;;5.28;;
26516;SDS011;14190;51.342;6.338;2023-02-24T10:34:22;26.35;;;5.30;;
26516;SDS011;14190;51.342;6.338;2023-02-24T10:39:19;27.73;;;6.28;;
26516;SDS011;14190;51.342;6.338;2023-02-24T10:41:49;16.70;;;4.58;;
26516;SDS011;14190;51.342;6.338;2023-02-24T10:46:45;15.70;;;5.08;;
26516;SDS011;14190;51.342;6.338;2023-02-24T10:49:12;34.83;;;5.58;;
26516;SDS011;14190;51.342;6.338;2023-02-24T10:51:42;20.35;;;4.60;;
26516;SDS011;14190;51.342;6.338;2023-02-24T10:54:22;23.20;;;6.40;;
26516;SDS011;14190;51.342;6.338;2023-02-24T10:56:50;26.65;;;5.50;;
26516;SDS011;14190;51.342;6.338;2023-02-24T10:59:28;22.17;;;4.75;;
26516;SDS011;14190;51.342;6.338;2023-02-24T11:02:21;13.72;;;4.67;;
26516;SDS011;14190;51.342;6.338;2023-02-24T11:04:52;25.32;;;5.45;;
26516;SDS011;14190;51.342;6.338;2023-02-24T11:07:21;31.33;;;5.37;;
26516;SDS011;14190;51.342;6.338;2023-02-24T11:10:00;18.37;;;5.35;;
26516;SDS011;14190;51.342;6.338;2023-02-24T11:12:29;28.80;;;4.97;;
26516;SDS011;14190;51.342;6.338;2023-02-24T11:15:24;16.95;;;5.90;;
26516;SDS011;14190;51.342;6.338;2023-02-24T11:18:22;19.87;;;5.03;;
26516;SDS011;14190;51.342;6.338;2023-02-24T11:20:49;23.07;;;5.33;;
26516;SDS011;14190;51.342;6.338;2023-02-24T11:23:17;28.35;;;5.85;;
26516;SDS011;14190;51.342;6.338;2023-02-24T11:25:48;25.65;;;5.08;;
26516;SDS011;14190;51.342;6.338;2023-02-24T11:30:58;25.43;;;5.83;;
26516;SDS011;14190;51.342;6.338;2023-02-24T11:36:13;26.40;;;5.78;;
26516;SDS011;14190;51.342;6.338;2023-02-24T11:38:49;16.17;;;5.85;;
26516;SDS011;14190;51.342;6.338;2023-02-24T11:41:22;24.00;;;5.30;;
26516;SDS011;14190;51.342;6.338;2023-02-24T11:43:55;27.07;;;5.08;;
26516;SDS011;14190;51.342;6.338;2023-02-24T11:46:25;23.55;;;5.35;;
26516;SDS011;14190;51.342;6.338;2023-02-24T11:48:53;33.80;;;6.00;;
26516;SDS011;14190;51.342;6.338;2023-02-24T11:51:26;13.35;;;4.47;;
26516;SDS011;14190;51.342;6.338;2023-02-24T11:54:10;20.00;;;4.78;;
26516;SDS011;14190;51.342;6.338;2023-02-24T11:56:38;25.77;;;7.72;;
26516;SDS011;14190;51.342;6.338;2023-02-24T11:59:13;27.45;;;5.85;;
26516;SDS011;14190;51.342;6.338;2023-02-24T12:04:16;28.90;;;6.55;;
26516;SDS011;14190;51.342;6.338;2023-02-24T12:09:29;23.07;;;5.78;;
26516;SDS011;14190;51.342;6.338;2023-02-24T12:12:07;26.62;;;5.65;;
26516;SDS011;14190;51.342;6.338;2023-02-24T12:17:19;24.90;;;6.28;;
26516;SDS011;14190;51.342;6.338;2023-02-24T12:22:23;20.92;;;6.75;;
26516;SDS011;14190;51.342;6.338;2023-02-24T12:24:51;23.50;;;7.67;;
26516;SDS011;14190;51.342;6.338;2023-02-24T12:27:32;24.20;;;7.03;;
26516;SDS011;14190;51.342;6.338;2023-02-24T12:29:58;23.45;;;7.28;;
26516;SDS011;14190;51.342;6.338;2023-02-24T12:32:29;31.12;;;7.58;;
26516;SDS011;14190;51.342;6.338;2023-02-24T12:50:48;26.10;;;7.00;;
26516;SDS011;14190;51.342;6.338;2023-02-24T12:53:19;25.50;;;7.65;;
26516;SDS011;14190;51.342;6.338;2023-02-24T12:58:25;27.10;;;6.97;;
26516;SDS011;14190;51.342;6.338;2023-02-24T13:01:39;29.87;;;8.70;;
26516;SDS011;14190;51.342;6.338;2023-02-24T13:03:31;21.00;;;7.78;;
26516;SDS011;14190;51.342;6.338;2023-02-24T13:08:44;23.87;;;6.80;;
26516;SDS011;14190;51.342;6.338;2023-02-24T13:13:54;31.20;;;8.43;;
26516;SDS011;14190;51.342;6.338;2023-02-24T13:16:29;27.52;;;8.23;;
26516;SDS011;14190;51.342;6.338;2023-02-24T13:21:35;27.58;;;8.50;;
26516;SDS011;14190;51.342;6.338;2023-02-24T13:24:04;25.55;;;9.33;;
26516;SDS011;14190;51.342;6.338;2023-02-24T13:26:32;34.95;;;9.25;;
26516;SDS011;14190;51.342;6.338;2023-02-24T13:29:09;25.82;;;10.03;;
26516;SDS011;14190;51.342;6.338;2023-02-24T13:31:47;27.15;;;9.80;;
26516;SDS011;14190;51.342;6.338;2023-02-24T13:36:49;19.82;;;10.53;;
26516;SDS011;14190;51.342;6.338;2023-02-24T13:39:21;28.38;;;11.12;;
26516;SDS011;14190;51.342;6.338;2023-02-24T13:41:49;26.93;;;11.12;;
26516;SDS011;14190;51.342;6.338;2023-02-24T13:49:32;23.47;;;12.60;;
26516;SDS011;14190;51.342;6.338;2023-02-24T13:51:58;25.45;;;11.80;;
26516;SDS011;14190;51.342;6.338;2023-02-24T13:54:48;27.37;;;13.18;;
26516;SDS011;14190;51.342;6.338;2023-02-24T13:57:36;31.75;;;14.18;;
26516;SDS011;14190;51.342;6.338;2023-02-24T14:02:38;28.02;;;11.93;;
26516;SDS011;14190;51.342;6.338;2023-02-24T14:05:15;32.55;;;14.05;;
26516;SDS011;14190;51.342;6.338;2023-02-24T14:07:38;28.10;;;13.65;;
26516;SDS011;14190;51.342;6.338;2023-02-24T14:10:17;25.48;;;13.83;;
26516;SDS011;14190;51.342;6.338;2023-02-24T14:12:45;34.45;;;14.18;;
26516;SDS011;14190;51.342;6.338;2023-02-24T14:15:17;36.80;;;15.65;;
26516;SDS011;14190;51.342;6.338;2023-02-24T14:17:42;32.15;;;14.98;;
26516;SDS011;14190;51.342;6.338;2023-02-24T14:22:43;37.83;;;16.73;;
26516;SDS011;14190;51.342;6.338;2023-02-24T14:25:11;34.05;;;14.68;;
26516;SDS011;14190;51.342;6.338;2023-02-24T14:27:39;31.55;;;15.50;;
26516;SDS011;14190;51.342;6.338;2023-02-24T14:30:06;36.70;;;17.65;;
26516;SDS011;14190;51.342;6.338;2023-02-24T14:32:34;33.67;;;17.37;;
26516;SDS011;14190;51.342;6.338;2023-02-24T14:35:01;37.20;;;19.52;;
26516;SDS011;14190;51.342;6.338;2023-02-24T14:37:29;39.18;;;18.85;;
26516;SDS011;14190;51.342;6.338;2023-02-24T14:39:59;42.83;;;21.45;;
26516;SDS011;14190;51.342;6.338;2023-02-24T14:42:28;42.93;;;22.35;;
26516;SDS011;14190;51.342;6.338;2023-02-24T14:44:56;39.03;;;21.33;;
26516;SDS011;14190;51.342;6.338;2023-02-24T14:47:25;38.02;;;21.87;;
26516;SDS011;14190;51.342;6.338;2023-02-24T14:50:00;37.00;;;23.15;;
26516;SDS011;14190;51.342;6.338;2023-02-24T14:52:30;38.45;;;20.37;;
26516;SDS011;14190;51.342;6.338;2023-02-24T14:54:58;32.78;;;20.77;;
26516;SDS011;14190;51.342;6.338;2023-02-24T14:57:34;38.98;;;22.07;;
26516;SDS011;14190;51.342;6.338;2023-02-24T14:59:59;38.38;;;20.92;;
26516;SDS011;14190;51.342;6.338;2023-02-24T15:02:30;39.67;;;20.15;;
26516;SDS011;14190;51.342;6.338;2023-02-24T15:04:57;30.17;;;19.98;;
26516;SDS011;14190;51.342;6.338;2023-02-24T15:07:26;37.28;;;19.77;;
26516;SDS011;14190;51.342;6.338;2023-02-24T15:09:54;33.28;;;19.98;;
26516;SDS011;14190;51.342;6.338;2023-02-24T15:15:02;37.23;;;22.55;;
26516;SDS011;14190;51.342;6.338;2023-02-24T15:17:25;39.48;;;23.90;;
26516;SDS011;14190;51.342;6.338;2023-02-24T15:19:53;41.92;;;24.32;;
26516;SDS011;14190;51.342;6.338;2023-02-24T15:22:22;41.20;;;24.00;;
26516;SDS011;14190;51.342;6.338;2023-02-24T15:24:50;38.92;;;24.57;;
26516;SDS011;14190;51.342;6.338;2023-02-24T15:27:20;39.15;;;21.82;;
26516;SDS011;14190;51.342;6.338;2023-02-24T15:29:57;38.85;;;24.10;;
26516;SDS011;14190;51.342;6.338;2023-02-24T15:32:27;36.80;;;20.12;;
26516;SDS011;14190;51.342;6.338;2023-02-24T15:34:55;45.10;;;23.27;;
26516;SDS011;14190;51.342;6.338;2023-02-24T15:37:23;37.15;;;21.57;;
26516;SDS011;14190;51.342;6.338;2023-02-24T15:39:55;36.38;;;22.77;;
26516;SDS011;14190;51.342;6.338;2023-02-24T15:42:22;37.50;;;21.60;;
26516;SDS011;14190;51.342;6.338;2023-02-24T15:44:55;36.15;;;18.82;;
26516;SDS011;14190;51.342;6.338;2023-02-24T15:47:28;41.25;;;19.65;;
26516;SDS011;14190;51.342;6.338;2023-02-24T15:49:52;37.85;;;18.65;;
26516;SDS011;14190;51.342;6.338;2023-02-24T15:52:21;41.05;;;19.77;;
26516;SDS011;14190;51.342;6.338;2023-02-24T15:54:53;33.35;;;20.48;;
26516;SDS011;14190;51.342;6.338;2023-02-24T15:57:17;39.88;;;20.27;;
26516;SDS011;14190;51.342;6.338;2023-02-24T15:59:47;36.30;;;20.25;;
26516;SDS011;14190;51.342;6.338;2023-02-24T16:02:15;35.10;;;19.70;;
26516;SDS011;14190;51.342;6.338;2023-02-24T16:04:45;39.00;;;19.77;;
26516;SDS011;14190;51.342;6.338;2023-02-24T16:07:16;27.82;;;18.25;;
26516;SDS011;14190;51.342;6.338;2023-02-24T16:09:44;29.30;;;16.02;;
26516;SDS011;14190;51.342;6.338;2023-02-24T16:12:13;29.72;;;16.20;;
26516;SDS011;14190;51.342;6.338;2023-02-24T16:14:41;28.65;;;15.50;;
26516;SDS011;14190;51.342;6.338;2023-02-24T16:17:17;28.55;;;14.25;;
26516;SDS011;14190;51.342;6.338;2023-02-24T16:19:44;24.98;;;14.78;;
26516;SDS011;14190;51.342;6.338;2023-02-24T16:22:11;29.60;;;15.18;;
26516;SDS011;14190;51.342;6.338;2023-02-24T16:24:40;28.60;;;13.53;;
26516;SDS011;14190;51.342;6.338;2023-02-24T16:27:14;29.23;;;13.13;;